Loisir ou Compétition : Rejoignez un Club de la Fédération

Résultats

24è GRAND PRIX DE SKI DE FOND DU PAYS ROCHOIS

LES GLIERES

MASS Hommes

Jury de Compétition

Délégué Technique :
MINARY JEAN PAUL (SA)
D.T. Adjoint :
 
Dir. Epreuve :
ROGUET JEAN CLAUDE (MB)

Caractéristiques de la Piste

Piste :
 
Distance :
5 km
Point Haut :
 
Point Bas :
 
Montée Tot. :
 
Montée Max. :
 
Homologation :
 

Pénalité Appliquée :
 
Coefficient :
 

Catégorie :
MIN
Style :
C

25/02/06 - FMBM0352

CltDosClt/CatCodeAnNom PrénomComClubTempsEcartPoints
11261/MINETRTR3280281992FINELLO JEREMYSTELLA ALPINA14:43.500:00.0
21452/MINFFS26239571992VERNAZ PIEMONT JULIENMBSC ABONDANCE14:45.100:01.6
31763/MINFFS26019601992GRENIER CLEMENTMBCS ARGENTIER15:05.500:22.0
41654/MINFFS23245301992AGNELLET GERARDMBCS LA CLUSAZ15:06.500:23.0
51725/MINFFS26140641992DUPERREX LUCASMBCS CHAMONIX15:26.600:43.1
61346/MINFFS26132131992PERRILLAT LUCMBSC GD BORNAN15:35.500:52.0
71687/MINFFS26140691992CLAUDON MAXIMEMBCS CHAMONIX15:46.301:02.8
81478/MINFFS26155481992AMOUDRUZ ANTHONYMBNORD.TANINGE15:52.901:09.4
91489/MINFFS26219451992ARMINJON MICKAELMBNORD.TANINGE15:59.501:16.0
1013710/MINFFS26132121992MISSILLIER QUENTINMBSC GD BORNAN16:00.901:17.4
1113611/MINFFS26132161992PESSEY OSCARMBSC GD BORNAN16:02.401:18.9
1216412/MINFFS23544771993EKSTEROWICZ GAETANMBCS LA CLUSAZ16:06.101:22.6
1314113/MINFFS26134321992MENOLI JONATHANMBSC D'AGY16:07.601:24.1
1413814/MINFFS26228961993WILLIG CLEMENTMBSC GD BORNAN16:14.601:31.1
1513315/MINFFS26155361992PRONNIER DAMIENMBSC GD BORNAN16:23.701:40.2
1612216/MINFFS26219611993BITON GUILLAUMEMBVILLARD/BOEG16:32.801:49.3
1714217/MINFFS26253581992DUPERTHUY JASONMBSC CONTAMINE16:40.001:56.5
1812818/MINFFS23538891992JACOB VALENTINMBSCNP ROCHOIS16:45.402:01.9
1915319/MINFFS26060141993PAIS VICTORMBLES GETS S.C16:47.602:04.1
2017320/MINFFS26206581993OSTERBERGER THIBAULTMBCS CHAMONIX16:48.302:04.8
2112521/MINFFS26200011993MUNIER REMIMBVILLARD/BOEG16:50.402:06.9
2215022/MINFFS26169381992COUDURIER JULIENMBNORD.TANINGE16:51.302:07.8
2315923/MINFFS23268011993MARIN CUDRAZ TANGUYMBCS MEGEVE16:51.702:08.2
2416124/MINFFS23535711993PARISSE CLEMENTMBCS MEGEVE16:53.002:09.5
2515225/MINFFS26029981993VIEVILLE NICOLASMBLES HOUCHES16:57.702:14.2
2615426/MINFFS26047311992DEWAELE ROMAINMBLES GETS S.C17:09.402:25.9
2712927/MINFFS26218771993ANDRE KEVINMBSCNP ROCHOIS17:24.702:41.2
2813028/MINFFS26218741993PHILIPOT MICKAELMBSCNP ROCHOIS17:28.002:44.5
2916029/MINFFS23535771993BARRANCA ALEXISMBCS MEGEVE17:46.103:02.6
3012430/MINFFS26199981993AMARAL MARCMBVILLARD/BOEG17:48.603:05.1
3116931/MINFFS26140681992TRICHET VICTORMBCS CHAMONIX17:51.403:07.9
3213232/MINFFS26220071993MARSURA JEREMYMBSC MIEUSSY18:16.703:33.2
3313933/MINFFS26231331993SUIZE THOMASMBSC GD BORNAN18:23.903:40.4
3415734/MINFFS26240181993DOCHE BAPTISTEMBDRAGONS ANNY18:26.703:43.2
3514935/MINFFS26219431993CHMARGOUNOF KEVINMBNORD.TANINGE18:29.203:45.7
3616636/MINFFS26185861993AGNELLET GEOFFREYMBCS LA CLUSAZ18:42.203:58.7
3716337/MINFFS23544831993COUDER THEOMBCS LA CLUSAZ18:43.003:59.5
3815138/MINFFS23234491993CHOUPIN PIERREMBLES HOUCHES18:44.204:00.7
3912139/MINFFS26258181993BEAUBEAU RUFINMBVILLARD/BOEG18:46.504:03.0
4016240/MINFFS26176921993LE BERRE MARTINMBCS MEGEVE18:59.804:16.3
4114341/MINFFS23235251992MONCEAU QUENTINMBSC CONTAMINE19:02.904:19.4
4215642/MINFFS23539561993LE GOUIL KEVINMBDRAGONS ANNY19:46.905:03.4
4313143/MINFFS26057391993CUNY NICOLASMBSCNP ROCHOIS19:58.605:15.1
4414444/MINFFS23535231992MATTEL GERALDMBSC CONTAMINE21:11.106:27.6
Non partants
123FFS26258241993HANQUIER MAXIMEMBVILLARD/BOEG
127ETRTR3329801992RIPOLL NEMOSTELLA ALPINA
135FFS26215931993CHESNAIS ROMAINMBSC GD BORNAN
140FFS22942811992VERNEY CHARLYMBSC GD BORNAN
146FFS23519491992BRUAND GUILLAUMEMBSALLANCHES
155FFS26281121993GAUGAIN MARINEMBDRAGONS ANNY
158FFS26295351993PESCHOT GUILLAUMEMBDRAGONS ANNY
167FFS26183071993GOY KILIANMBCS LA CLUSAZ
170FFS26140661992VOUILLAMOZ SYLVAINMBCS CHAMONIX
171FFS26140651992PELLE GUILLAUMEMBCS CHAMONIX
174FFS26205831993DUMONT CLEMENTMBCS CHAMONIX
175FFS22626221992GOUJON ANTOINEMBCS CHAMONIX